createdAt,value
2022-09-13T00:00:51.788Z,18.00
2022-09-13T00:03:20.707Z,18.00
2022-09-13T00:05:49.764Z,17.90
2022-09-13T00:08:19.139Z,17.90
2022-09-13T00:10:47.578Z,17.80
2022-09-13T00:13:18.929Z,17.80
2022-09-13T00:15:49.490Z,17.80
2022-09-13T00:18:19.491Z,17.80
2022-09-13T00:20:47.780Z,17.80
2022-09-13T00:23:15.950Z,17.70
2022-09-13T00:25:44.206Z,17.70
2022-09-13T00:28:12.434Z,17.70
2022-09-13T00:30:42.120Z,17.70
2022-09-13T00:33:10.271Z,17.70
2022-09-13T00:35:40.295Z,17.60
2022-09-13T00:38:08.403Z,17.60
2022-09-13T00:40:39.113Z,17.60
2022-09-13T00:43:13.748Z,17.60
2022-09-13T00:45:43.577Z,17.60
2022-09-13T00:48:20.136Z,17.50
2022-09-13T00:50:52.850Z,17.50
2022-09-13T00:53:25.195Z,17.40
2022-09-13T00:55:57.673Z,17.40
2022-09-13T00:58:29.308Z,17.30
2022-09-13T01:01:00.035Z,17.30
2022-09-13T01:03:29.979Z,17.30
2022-09-13T01:06:03.094Z,17.30
2022-09-13T01:08:32.950Z,17.30
2022-09-13T01:11:04.272Z,17.40
2022-09-13T01:13:34.073Z,17.40
2022-09-13T01:16:03.789Z,17.30
2022-09-13T01:18:32.387Z,17.30
2022-09-13T01:21:25.770Z,17.30
2022-09-13T01:24:23.359Z,17.30
2022-09-13T01:27:20.736Z,17.30
2022-09-13T01:30:21.728Z,17.20
2022-09-13T01:33:08.744Z,17.20
2022-09-13T01:35:48.036Z,17.10
2022-09-13T01:38:33.467Z,17.10
2022-09-13T01:41:10.459Z,17.10
2022-09-13T01:43:50.865Z,17.00
2022-09-13T01:46:26.632Z,17.00
2022-09-13T01:49:00.386Z,16.90
2022-09-13T01:51:33.942Z,16.90
2022-09-13T01:54:21.865Z,16.90
2022-09-13T01:56:57.114Z,16.80
2022-09-13T01:59:34.812Z,16.80
2022-09-13T02:02:09.232Z,16.80
2022-09-13T02:04:41.518Z,16.70
2022-09-13T02:07:14.331Z,16.70
2022-09-13T02:09:47.702Z,16.60
2022-09-13T02:12:17.403Z,16.70
2022-09-13T02:14:51.791Z,16.60
2022-09-13T02:17:25.278Z,16.60
2022-09-13T02:19:56.418Z,16.60
2022-09-13T02:22:29.870Z,16.50
2022-09-13T02:25:02.715Z,16.60
2022-09-13T02:27:35.154Z,16.60
2022-09-13T02:30:06.294Z,16.60
2022-09-13T02:32:40.343Z,16.60
2022-09-13T02:35:13.508Z,16.60
2022-09-13T02:37:46.107Z,16.50
2022-09-13T02:40:23.475Z,16.50
2022-09-13T02:42:56.954Z,16.50
2022-09-13T02:45:33.121Z,16.50
2022-09-13T02:48:10.519Z,16.60
2022-09-13T02:50:48.713Z,16.60
2022-09-13T02:53:27.377Z,16.70
2022-09-13T02:56:01.635Z,16.70
2022-09-13T02:58:36.337Z,16.70
2022-09-13T03:01:04.966Z,16.70
2022-09-13T03:03:34.583Z,16.80
2022-09-13T03:06:02.976Z,16.70
2022-09-13T03:08:31.794Z,16.80
2022-09-13T03:11:12.366Z,16.70
2022-09-13T03:14:08.481Z,16.70
2022-09-13T03:16:51.166Z,16.70
2022-09-13T03:19:31.509Z,16.70
2022-09-13T03:22:17.967Z,16.70
2022-09-13T03:24:56.496Z,16.80
2022-09-13T03:27:35.825Z,16.80
2022-09-13T03:30:07.251Z,16.80
2022-09-13T03:32:42.748Z,16.80
2022-09-13T03:35:21.404Z,16.80
2022-09-13T03:37:58.522Z,16.70
2022-09-13T03:40:36.875Z,16.70
2022-09-13T03:43:09.594Z,16.70
2022-09-13T03:45:44.456Z,16.70
2022-09-13T03:48:13.966Z,16.70
2022-09-13T03:50:44.208Z,16.70
2022-09-13T03:53:14.502Z,16.70
2022-09-13T03:55:44.504Z,16.70
2022-09-13T03:58:14.631Z,16.70
2022-09-13T04:00:43.235Z,16.80
2022-09-13T04:03:11.319Z,16.80
2022-09-13T04:05:39.546Z,16.80
2022-09-13T04:08:09.913Z,16.80
2022-09-13T04:10:38.687Z,16.80
2022-09-13T04:13:06.988Z,16.80
2022-09-13T04:15:35.131Z,16.80
2022-09-13T04:18:03.309Z,16.80
2022-09-13T04:20:31.411Z,16.80
2022-09-13T04:22:59.479Z,16.80
2022-09-13T04:25:29.198Z,16.70
2022-09-13T04:28:00.112Z,16.70
2022-09-13T04:30:28.696Z,16.70
2022-09-13T04:32:59.567Z,16.70
2022-09-13T04:35:29.045Z,16.70
2022-09-13T04:37:58.188Z,16.70
2022-09-13T04:40:26.633Z,16.70
2022-09-13T04:42:56.187Z,16.70
2022-09-13T04:45:24.564Z,16.80
2022-09-13T04:47:53.872Z,16.80
2022-09-13T04:50:22.226Z,16.90
2022-09-13T04:52:50.423Z,16.90
2022-09-13T04:55:18.711Z,16.90
2022-09-13T04:57:47.040Z,17.00
2022-09-13T05:00:17.032Z,17.00
2022-09-13T05:02:45.199Z,16.90
2022-09-13T05:05:13.336Z,17.00
2022-09-13T05:07:41.428Z,17.00
2022-09-13T05:10:10.452Z,17.00
2022-09-13T05:12:38.626Z,17.00
2022-09-13T05:15:07.942Z,17.10
2022-09-13T05:17:37.427Z,17.10
2022-09-13T05:20:06.978Z,17.10
2022-09-13T05:22:35.220Z,17.20
2022-09-13T05:25:03.391Z,17.20
2022-09-13T05:27:31.478Z,17.30
2022-09-13T05:29:59.758Z,17.40
2022-09-13T05:32:27.962Z,17.40
2022-09-13T05:34:57.573Z,17.40
2022-09-13T05:37:25.795Z,17.40
2022-09-13T05:40:10.670Z,17.50
2022-09-13T05:42:39.919Z,17.50
2022-09-13T05:45:09.417Z,17.40
2022-09-13T05:47:37.666Z,17.40
2022-09-13T05:50:11.099Z,17.40
2022-09-13T05:52:41.765Z,17.40
2022-09-13T05:55:10.978Z,17.50
2022-09-13T05:57:39.500Z,17.50
2022-09-13T06:00:08.892Z,17.50
2022-09-13T06:02:36.994Z,17.60
2022-09-13T06:05:07.304Z,17.60
2022-09-13T06:07:35.412Z,17.70
2022-09-13T06:10:04.026Z,17.70
2022-09-13T06:12:32.278Z,17.80
2022-09-13T06:15:00.389Z,17.80
2022-09-13T06:17:28.508Z,17.90
2022-09-13T06:19:57.190Z,18.00
2022-09-13T06:22:33.044Z,18.10
2022-09-13T06:25:01.244Z,18.10
2022-09-13T06:27:31.356Z,18.20
2022-09-13T06:29:59.455Z,18.40
2022-09-13T06:32:27.738Z,18.40
2022-09-13T06:34:55.888Z,18.40
2022-09-13T06:37:24.118Z,18.50
2022-09-13T06:39:53.696Z,18.50
2022-09-13T06:42:21.850Z,18.60
2022-09-13T06:44:50.021Z,18.60
2022-09-13T06:47:18.168Z,18.60
2022-09-13T06:49:46.493Z,18.70
2022-09-13T06:52:14.641Z,18.80
2022-09-13T06:54:43.661Z,18.80
2022-09-13T06:57:13.455Z,18.80
2022-09-13T06:59:41.778Z,18.90
2022-09-13T07:02:11.289Z,18.90
2022-09-13T07:04:39.441Z,19.00
2022-09-13T07:07:07.576Z,19.00
2022-09-13T07:09:35.752Z,19.10
2022-09-13T07:12:06.401Z,19.10
2022-09-13T07:14:35.880Z,19.10
2022-09-13T07:17:04.733Z,19.10
2022-09-13T07:19:32.888Z,19.10
2022-09-13T07:22:01.253Z,19.10
2022-09-13T07:24:29.408Z,19.10
2022-09-13T07:26:57.619Z,19.20
2022-09-13T07:29:25.954Z,19.20
2022-09-13T07:31:56.857Z,19.20
2022-09-13T07:34:26.307Z,19.20
2022-09-13T07:36:55.120Z,19.20
2022-09-13T07:39:24.305Z,19.20
2022-09-13T07:41:53.818Z,19.30
2022-09-13T07:44:22.811Z,19.20
2022-09-13T07:46:51.021Z,19.30
2022-09-13T07:49:21.075Z,19.30
2022-09-13T07:51:51.474Z,19.30
2022-09-13T07:54:20.591Z,19.30
2022-09-13T07:56:50.336Z,19.40
2022-09-13T07:59:19.580Z,19.30
2022-09-13T08:01:49.422Z,19.40
2022-09-13T08:04:32.351Z,19.40
2022-09-13T08:07:02.658Z,19.40
2022-09-13T08:09:30.888Z,19.40
2022-09-13T08:11:58.948Z,19.50
2022-09-13T08:14:27.287Z,19.50
2022-09-13T08:16:57.588Z,19.50
2022-09-13T08:19:27.334Z,19.60
2022-09-13T08:21:55.435Z,19.60
2022-09-13T08:24:23.918Z,19.70
2022-09-13T08:26:52.994Z,19.80
2022-09-13T08:29:21.224Z,19.80
2022-09-13T08:31:49.405Z,19.90
2022-09-13T08:34:18.446Z,20.00
2022-09-13T08:36:47.984Z,20.10
2022-09-13T08:39:16.078Z,20.30
2022-09-13T08:42:18.619Z,20.40
2022-09-13T08:44:49.075Z,20.60
2022-09-13T08:47:32.160Z,20.80
2022-09-13T08:50:14.374Z,21.00
2022-09-13T08:52:56.203Z,21.10
2022-09-13T08:55:34.346Z,21.30
2022-09-13T08:58:12.575Z,21.40
2022-09-13T09:00:45.135Z,21.60
2022-09-13T09:03:25.609Z,21.70
2022-09-13T09:05:54.590Z,21.90
2022-09-13T09:08:33.959Z,22.10
2022-09-13T09:11:08.703Z,22.30
2022-09-13T09:13:40.435Z,22.50
2022-09-13T09:16:21.150Z,22.70
2022-09-13T09:18:50.905Z,23.00
2022-09-13T09:21:20.364Z,23.30
2022-09-13T09:23:52.413Z,23.50
2022-09-13T09:26:22.670Z,23.80
2022-09-13T09:28:52.289Z,24.10
2022-09-13T09:31:32.311Z,24.40
2022-09-13T09:34:13.962Z,24.70
2022-09-13T09:36:46.256Z,24.90
2022-09-13T09:39:16.585Z,25.20
2022-09-13T09:41:45.391Z,25.40
2022-09-13T09:44:20.326Z,25.60
2022-09-13T09:46:53.082Z,25.80
2022-09-13T09:49:44.891Z,26.00
2022-09-13T09:52:16.862Z,26.20
2022-09-13T09:54:46.694Z,26.40
2022-09-13T09:57:15.289Z,26.50
2022-09-13T09:59:43.647Z,26.60
2022-09-13T10:02:20.901Z,26.60
2022-09-13T10:04:57.935Z,26.60
2022-09-13T10:07:30.974Z,26.60
2022-09-13T10:10:06.278Z,26.60
2022-09-13T10:12:36.786Z,26.70
2022-09-13T10:15:18.013Z,26.80
2022-09-13T10:18:03.061Z,27.10
2022-09-13T10:20:31.653Z,27.40
2022-09-13T10:23:18.720Z,27.70
2022-09-13T10:26:03.057Z,28.00
2022-09-13T10:28:34.975Z,28.20
2022-09-13T10:31:06.392Z,28.50
2022-09-13T10:33:37.401Z,28.70
2022-09-13T10:36:09.319Z,29.00
2022-09-13T10:38:45.413Z,29.20
2022-09-13T10:41:25.326Z,29.40
2022-09-13T10:43:58.998Z,29.60
2022-09-13T10:46:29.283Z,29.80
2022-09-13T10:48:57.666Z,30.10
2022-09-13T10:51:38.059Z,30.30
2022-09-13T10:54:16.614Z,30.60
2022-09-13T10:56:46.499Z,30.80
2022-09-13T10:59:23.438Z,31.10
2022-09-13T11:02:27.252Z,31.30
2022-09-13T11:05:22.112Z,31.50
2022-09-13T11:08:12.849Z,31.60
2022-09-13T11:10:51.827Z,31.70
2022-09-13T11:13:30.173Z,31.80
2022-09-13T11:16:07.642Z,31.90
2022-09-13T11:19:00.892Z,32.00
2022-09-13T11:21:41.492Z,32.00
2022-09-13T11:24:25.131Z,32.10
2022-09-13T11:27:01.825Z,32.20
2022-09-13T11:29:51.714Z,32.30
2022-09-13T11:32:34.807Z,32.40
2022-09-13T11:35:18.948Z,32.50
2022-09-13T11:37:56.258Z,32.60
2022-09-13T11:40:46.198Z,32.60
2022-09-13T11:43:36.234Z,32.50
2022-09-13T11:46:16.612Z,32.50
2022-09-13T11:49:05.392Z,32.40
2022-09-13T11:51:48.926Z,32.40
2022-09-13T11:54:28.610Z,32.30
2022-09-13T11:57:00.668Z,32.20
2022-09-13T11:59:40.059Z,32.10
2022-09-13T12:02:21.161Z,32.00
2022-09-13T12:05:18.433Z,31.90
2022-09-13T12:07:47.889Z,31.80
2022-09-13T12:10:19.306Z,31.70
2022-09-13T12:12:51.960Z,31.60
2022-09-13T12:15:25.169Z,31.50
2022-09-13T12:17:59.476Z,31.50
2022-09-13T12:20:34.268Z,31.50
2022-09-13T12:23:05.975Z,31.40
2022-09-13T12:25:40.421Z,31.40
2022-09-13T12:28:17.845Z,31.40
2022-09-13T12:30:52.955Z,31.30
2022-09-13T12:33:23.059Z,31.30
2022-09-13T12:36:03.828Z,31.20
2022-09-13T12:39:11.943Z,31.00
2022-09-13T12:41:52.194Z,30.80
2022-09-13T12:44:47.894Z,30.50
2022-09-13T12:47:52.040Z,30.30
2022-09-13T12:50:51.317Z,30.10
2022-09-13T12:53:37.556Z,29.90
2022-09-13T12:56:25.251Z,29.60
2022-09-13T12:59:23.192Z,29.50
2022-09-13T13:01:52.789Z,29.30
2022-09-13T13:04:24.842Z,29.00
2022-09-13T13:06:57.658Z,28.90
2022-09-13T13:09:35.249Z,28.80
2022-09-13T13:12:04.373Z,28.80
2022-09-13T13:14:53.252Z,28.90
2022-09-13T13:17:41.456Z,29.00
2022-09-13T13:20:46.161Z,29.40
2022-09-13T13:23:25.324Z,29.80
2022-09-13T13:26:00.968Z,30.20
2022-09-13T13:28:52.869Z,30.60
2022-09-13T13:31:37.083Z,30.90
2022-09-13T13:34:42.984Z,31.10
2022-09-13T13:37:32.392Z,31.20
2022-09-13T13:40:30.527Z,31.10
2022-09-13T13:43:29.555Z,31.10
2022-09-13T13:46:30.224Z,31.10
2022-09-13T13:49:33.129Z,31.10
2022-09-13T13:52:37.562Z,31.10
2022-09-13T13:55:33.581Z,31.00
2022-09-13T13:58:04.734Z,31.00
2022-09-13T14:00:36.484Z,30.90
2022-09-13T14:03:19.876Z,30.90
2022-09-13T14:05:55.631Z,30.90
2022-09-13T14:08:53.317Z,30.90
2022-09-13T14:11:34.354Z,30.90
2022-09-13T14:14:23.334Z,30.90
2022-09-13T14:17:19.859Z,31.00
2022-09-13T14:19:50.515Z,31.20
2022-09-13T14:22:22.378Z,31.40
2022-09-13T14:24:51.708Z,31.50
2022-09-13T14:27:24.180Z,31.70
2022-09-13T14:29:54.442Z,31.80
2022-09-13T14:32:25.298Z,31.90
2022-09-13T14:34:57.178Z,31.90
2022-09-13T14:37:29.771Z,31.90
2022-09-13T14:40:00.478Z,31.90
2022-09-13T14:42:40.055Z,31.90
2022-09-13T14:45:13.334Z,31.90
2022-09-13T14:47:51.812Z,31.90
2022-09-13T14:50:25.127Z,31.90
2022-09-13T14:52:56.002Z,31.80
2022-09-13T14:55:29.255Z,31.80
2022-09-13T14:58:04.380Z,31.60
2022-09-13T15:00:36.824Z,31.60
2022-09-13T15:03:12.251Z,31.40
2022-09-13T15:05:41.437Z,31.20
2022-09-13T15:08:29.279Z,31.10
2022-09-13T15:10:59.358Z,30.90
2022-09-13T15:13:29.021Z,30.80
2022-09-13T15:15:57.651Z,30.70
2022-09-13T15:18:27.446Z,30.70
2022-09-13T15:20:58.250Z,30.70
2022-09-13T15:23:29.282Z,30.70
2022-09-13T15:26:00.323Z,30.80
2022-09-13T15:28:32.887Z,30.80
2022-09-13T15:31:02.398Z,30.80
2022-09-13T15:33:34.074Z,30.80
2022-09-13T15:36:28.124Z,30.80
2022-09-13T15:39:05.493Z,30.80
2022-09-13T15:41:35.140Z,30.80
2022-09-13T15:44:06.969Z,30.80
2022-09-13T15:46:49.189Z,30.70
2022-09-13T15:49:20.623Z,30.70
2022-09-13T15:51:48.873Z,30.60
2022-09-13T15:54:19.312Z,30.50
2022-09-13T15:56:49.479Z,30.50
2022-09-13T15:59:20.735Z,30.50
2022-09-13T16:01:49.896Z,30.30
2022-09-13T16:04:18.315Z,30.10
2022-09-13T16:06:46.699Z,30.00
2022-09-13T16:09:19.589Z,29.80
2022-09-13T16:11:48.182Z,29.60
2022-09-13T16:14:18.304Z,29.40
2022-09-13T16:16:47.131Z,29.20
2022-09-13T16:19:17.583Z,29.00
2022-09-13T16:21:46.133Z,28.80
2022-09-13T16:24:14.615Z,28.70
2022-09-13T16:26:43.129Z,28.50
2022-09-13T16:29:12.746Z,28.30
2022-09-13T16:31:42.661Z,28.20
2022-09-13T16:34:10.796Z,28.10
2022-09-13T16:36:39.195Z,27.90
2022-09-13T16:39:07.563Z,27.80
2022-09-13T16:41:35.743Z,27.70
2022-09-13T16:44:05.154Z,27.60
2022-09-13T16:46:33.814Z,27.50
2022-09-13T16:49:03.605Z,27.30
2022-09-13T16:51:31.700Z,27.30
2022-09-13T16:54:00.337Z,27.10
2022-09-13T16:56:28.663Z,27.00
2022-09-13T16:58:57.397Z,26.90
2022-09-13T17:01:27.388Z,26.80
2022-09-13T17:03:56.973Z,26.70
2022-09-13T17:06:28.062Z,26.60
2022-09-13T17:09:00.361Z,26.50
2022-09-13T17:11:30.691Z,26.40
2022-09-13T17:13:58.997Z,26.30
2022-09-13T17:16:30.359Z,26.30
2022-09-13T17:18:59.940Z,26.20
2022-09-13T17:21:31.054Z,26.10
2022-09-13T17:23:59.154Z,26.00
2022-09-13T17:26:27.378Z,26.00
2022-09-13T17:28:55.489Z,25.90
2022-09-13T17:31:23.780Z,25.80
2022-09-13T17:33:53.243Z,25.70
2022-09-13T17:36:22.189Z,25.70
2022-09-13T17:38:56.311Z,25.60
2022-09-13T17:41:26.087Z,25.60
2022-09-13T17:43:55.240Z,25.50
2022-09-13T17:46:27.858Z,25.40
2022-09-13T17:48:58.051Z,25.30
2022-09-13T17:51:27.759Z,25.30
2022-09-13T17:54:00.277Z,25.20
2022-09-13T17:56:30.758Z,25.20
2022-09-13T17:59:07.997Z,25.20
2022-09-13T18:01:40.119Z,25.10
2022-09-13T18:04:08.750Z,25.00
2022-09-13T18:06:37.201Z,24.90
2022-09-13T18:09:07.384Z,24.90
2022-09-13T18:11:35.599Z,24.80
2022-09-13T18:14:03.810Z,24.70
2022-09-13T18:16:31.921Z,24.70
2022-09-13T18:19:01.595Z,24.60
2022-09-13T18:21:29.970Z,24.50
2022-09-13T18:24:01.605Z,24.40
2022-09-13T18:26:32.465Z,24.30
2022-09-13T18:29:02.944Z,24.20
2022-09-13T18:31:32.884Z,24.10
2022-09-13T18:34:03.047Z,24.00
2022-09-13T18:36:35.070Z,23.90
2022-09-13T18:39:05.022Z,23.70
2022-09-13T18:41:37.137Z,23.70
2022-09-13T18:44:05.985Z,23.60
2022-09-13T18:46:35.465Z,23.50
2022-09-13T18:49:04.523Z,23.50
2022-09-13T18:51:34.403Z,23.40
2022-09-13T18:54:03.064Z,23.40
2022-09-13T18:56:32.777Z,23.30
2022-09-13T18:59:04.305Z,23.30
2022-09-13T19:01:34.687Z,23.30
2022-09-13T19:04:05.396Z,23.30
2022-09-13T19:06:35.528Z,23.30
2022-09-13T19:09:05.073Z,23.30
2022-09-13T19:11:46.483Z,23.20
2022-09-13T19:14:18.837Z,23.20
2022-09-13T19:16:47.045Z,23.10
2022-09-13T19:19:15.752Z,23.10
2022-09-13T19:21:44.278Z,23.00
2022-09-13T19:24:18.116Z,22.90
2022-09-13T19:26:47.915Z,22.90
2022-09-13T19:29:19.771Z,22.80
2022-09-13T19:31:49.704Z,22.70
2022-09-13T19:34:18.948Z,22.70
2022-09-13T19:36:48.921Z,22.60
2022-09-13T19:39:17.495Z,22.60
2022-09-13T19:41:45.736Z,22.60
2022-09-13T19:44:14.708Z,22.50
2022-09-13T19:46:44.499Z,22.50
2022-09-13T19:49:15.294Z,22.40
2022-09-13T19:51:48.796Z,22.40
2022-09-13T19:54:20.554Z,22.30
2022-09-13T19:56:50.042Z,22.30
2022-09-13T19:59:20.801Z,22.20
2022-09-13T20:01:50.368Z,22.20
2022-09-13T20:04:20.198Z,22.10
2022-09-13T20:06:50.071Z,22.10
2022-09-13T20:09:20.537Z,22.10
2022-09-13T20:11:49.226Z,22.10
2022-09-13T20:14:19.251Z,22.00
2022-09-13T20:16:49.416Z,22.00
2022-09-13T20:19:39.843Z,22.00
2022-09-13T20:22:08.023Z,22.00
2022-09-13T20:24:36.504Z,22.00
2022-09-13T20:27:04.703Z,22.00
2022-09-13T20:29:32.885Z,22.00
2022-09-13T20:32:02.689Z,22.00
2022-09-13T20:34:31.310Z,22.00
2022-09-13T20:36:59.406Z,22.00
2022-09-13T20:39:27.653Z,22.00
2022-09-13T20:41:55.749Z,22.00
2022-09-13T20:44:24.050Z,22.00
2022-09-13T20:46:52.147Z,22.00
2022-09-13T20:49:22.253Z,22.00
2022-09-13T20:51:50.978Z,22.00
2022-09-13T20:54:19.513Z,22.00
2022-09-13T20:56:48.168Z,22.10
2022-09-13T20:59:16.246Z,22.10
2022-09-13T21:01:44.618Z,22.10
2022-09-13T21:04:12.897Z,22.10
2022-09-13T21:07:03.638Z,22.10
2022-09-13T21:09:32.555Z,22.20
2022-09-13T21:12:02.018Z,22.20
2022-09-13T21:14:33.973Z,22.20
2022-09-13T21:17:07.668Z,22.20
2022-09-13T21:19:35.941Z,22.10
2022-09-13T21:22:05.676Z,22.10
2022-09-13T21:24:33.925Z,22.00
2022-09-13T21:27:02.059Z,22.00
2022-09-13T21:29:30.171Z,21.90
2022-09-13T21:31:58.299Z,21.90
2022-09-13T21:34:27.363Z,21.80
2022-09-13T21:36:56.039Z,21.80
2022-09-13T21:39:25.692Z,21.70
2022-09-13T21:41:53.907Z,21.70
2022-09-13T21:44:22.103Z,21.70
2022-09-13T21:46:51.587Z,21.70
2022-09-13T21:49:20.197Z,21.70
2022-09-13T21:51:49.870Z,21.70
2022-09-13T21:54:19.883Z,21.60
2022-09-13T21:56:55.592Z,21.60
2022-09-13T21:59:24.539Z,21.60
2022-09-13T22:01:54.213Z,21.60
2022-09-13T22:04:24.282Z,21.60
2022-09-13T22:06:53.695Z,21.60
2022-09-13T22:09:23.590Z,21.60
2022-09-13T22:11:53.167Z,21.60
2022-09-13T22:14:22.640Z,21.60
2022-09-13T22:16:52.939Z,21.60
2022-09-13T22:19:24.517Z,21.70
2022-09-13T22:21:59.107Z,21.70
2022-09-13T22:24:29.355Z,21.70
2022-09-13T22:26:59.595Z,21.70
2022-09-13T22:29:27.963Z,21.60
2022-09-13T22:31:56.378Z,21.60
2022-09-13T22:34:26.059Z,21.50
2022-09-13T22:36:55.761Z,21.50
2022-09-13T22:39:24.330Z,21.50
2022-09-13T22:41:52.816Z,21.40
2022-09-13T22:44:22.476Z,21.40
2022-09-13T22:46:50.666Z,21.30
2022-09-13T22:49:20.236Z,21.30
2022-09-13T22:51:49.029Z,21.30
2022-09-13T22:54:19.286Z,21.30
2022-09-13T22:56:48.002Z,21.30
2022-09-13T22:59:17.790Z,21.30
2022-09-13T23:01:47.847Z,21.30
2022-09-13T23:04:16.255Z,21.30
2022-09-13T23:06:45.168Z,21.30
2022-09-13T23:09:15.856Z,21.30
2022-09-13T23:11:44.415Z,21.30
2022-09-13T23:14:14.589Z,21.30
2022-09-13T23:16:44.509Z,21.30
2022-09-13T23:19:14.956Z,21.30
2022-09-13T23:21:44.070Z,21.30
2022-09-13T23:24:14.120Z,21.30
2022-09-13T23:26:42.717Z,21.40
2022-09-13T23:29:14.907Z,21.40
2022-09-13T23:31:43.617Z,21.40
2022-09-13T23:34:14.311Z,21.40
2022-09-13T23:36:43.949Z,21.40
2022-09-13T23:39:16.325Z,21.40
2022-09-13T23:41:45.259Z,21.40
2022-09-13T23:44:14.005Z,21.40
2022-09-13T23:46:42.241Z,21.40
2022-09-13T23:49:10.544Z,21.40
2022-09-13T23:51:40.501Z,21.40
2022-09-13T23:54:09.479Z,21.30
2022-09-13T23:56:37.680Z,21.40
2022-09-13T23:59:06.615Z,21.40
